Palisade, CO (81526)

2:42 AM MST on November 27, 2014 (GMT -0700)
Rapid Creek Road | Change Station
CLOSE
Current Station
Personal Weather Station
Location: Palisade, CO
Elevation: 4980 ft
Nearby Weather Stations
Active Advisory: Special Weather Statement

Elev 4980 ft 39.13 °N, 108.32 °W | Updated 10 seconds ago

Clear
Clear
32.1 °F
Feels Like 23 °F
N
13.0
Wind Variable Wind from SE
Gusts 15.0 mph

Today
High -- | Low -- °F
--% Chance of Precip.
Yesterday
High -- | Low -- °F
Precip. -- in
7:09 AM 4:52 PM
Waxing Crescent, 28% visible
Pressure 30.47 in
Visibility 10.0 miles
Clouds Clear
Windchill 23 °F
Dew Point 25 °F
Humidity 75%
Rainfall 0.00 in
Snow Depth Not available.
UV 0 out of 12
Pollen .10 out of 12
Air Quality Not available.
Flu Activity Not available.
METAR KGJT 270853Z AUTO 11004KT 10SM CLR M03/M06 A3046 RMK AO2 SLP317 T10281056 51005

More Conditions Fewer Conditions

Pressure 30.47 in
Visibility 10.0 miles
Clouds Clear
Windchill 23 °F
Dew Point 25 °F
Humidity 75%
Rainfall 0.00 in
Snow Depth Not available.
UV 0 out of 12
Pollen .10 out of 12
Air Quality Not available.
Flu Activity Not available.
METAR KGJT 270853Z AUTO 11004KT 10SM CLR M03/M06 A3046 RMK AO2 SLP317 T10281056 51005

More Conditions Fewer Conditions

10-Day Weather Forecast

Almanac

Astronomy

Nov. 27, 2014 Rise Set
Actual Time
Civil Twilight
Nautical Twilight
Astronomical Twilight
Moon
Length of Visible Light
Length of Day
Tomorrow will be .
, % of the Moon is Illuminated

Today's Extremes

State Highs State Lows

Community

WunderPhotos

Upload Photos

1,773,965 photos uploaded!

WunderBlogs® & News

Nearby

Air Quality

  Air Quality AQ Index Pollutant
Not available.

Snow Depth

Station Depth Elevation

Earthquake Activity

City Distance Mag. Time & Date
Minimum magnitude displayed is 2.5.

Coastal Water Temperatures

Place Temperature

Nearby Weather Stations